aviador You're here:

KOVE Decoded Metar

OROVILLE in CA, USA
Report Time2018-05-23 15:53:00
UTC Time2018-05-23 16:24:22
Flight Rules vfr VFR
Wind160° at 09 kt
W.Decomp.*RWY 13: 8.7 kt HW 2.2 kt RCW
RWY 20: 5.0 kt HW 7.5 kt LCW
W.Rank160° ranks 1
Current wind is below 160° avg. (9.4)
Visibility9999 m
Phenomena:N/A
Clouds:N/A
Expected CloudBase > 2,000 ft AGL from Temp-Dew spread
CeilingNone
Temp17°C (ISA +2)
Dew Point12°C (73% RH)
AAT14.4°C
QNH1013 hPa
Density Alt659 ft
Elevation190 ft
Report Wrong Elevation
Raw Report
KOVE 231553Z AUTO 16009KT 10SM CLR 17/12 A2991 RMK AO2 SLP130
T01670117=

Extra information for KOVE:More info

Metar Taf Metar & Taf Last 4 Metars F.Rules Stats Wind Profile Meteogram Temp Stats Airport Information Weather charts Add Link Nearby VenuesMetar ALERT Operation Metar Decoded Social comments

AIRNAV info for KOVE